Aeroporto :
LOGIN :

Iscrizione | Disclaimer

   EN    FR    IT 

 










Sommario :    VFR   VFR Marginale   IFR   IFR Intensivo   IFR Molto Intensivo
Visibilità : 
Base nubi : 
>= 8 km
>= 3000ft
5 / 8 km
1000 / 3000 ft
1500m / 5 km
500 / 1000 ft
800 / 1500m
200 / 500 ft
< 800m
< 200 ft
Simboli :   Temporali  Nebbia  Neve Forte  Precipitazioni Forti  Vento > 20 kt
SIGMETs :   Varie  Temporali  Ghiacco  Turbolenza  Onda orograficha  Ceneri Vulcaniche






- Altitudine del aeroporto : 502 ft
- Codice IATA : ORK


EICK - Cork

ULTIMO METAR :
  • 061700Z 28013KT 9999 SCT022 SCT030 09/05 Q1008 NOSIG

METARs OBSOLETI :
  • 061630Z 30017KT 9999 BKN028 09/05 Q1007 NOSIG
  • 061600Z 25010KT 9999 BKN021 09/05 Q1008 NOSIG
  • 061530Z 29019KT 9999 BKN023 10/05 Q1006 NOSIG
  • 061500Z 27009KT 9999 FEW022 10/06 Q1006 NOSIG

TAF TAF EICK
Valido dal 06 a 18 ore il 07 a 18 ore UTC


061700Z 0618/0718 30014KT 9999 SCT018 BKN028
BECMG 0618/0620 24008KT
BECMG 0709/0711 22013KT BKN012
BECMG 0712/0714 21015G26KT
TEMPO 0712/0715 -RA BKN007
BECMG 0715/0717 20020G32KT 4000 -RADZ BKN007
TEMPO 0717/0718 2000 RADZ BKN003



MetMap, La meteo Aeronautica in un colpo d'occhio ! - Copyright ORBIFLY Dicembre 2007 - Disclaimer

ORBIFLY MET'MAP TEAM :

Programmazione e sviluppo : Alexandra Zaïnal
Concezione : Baudouin d'Aumeries
Aiuto per la programmazione : Marc-Olivier Méhu
Supporto tecnico e logistico : Manuel Goepfert
Aiuto per la traduzione : Arnaldo La Scala

Contatto : metmap@orbifly.com




FONTI E CREDITI :

   NOAA